sensor_id;sensor_type;location;lat;lon;timestamp;pressure;altitude;pressure_sealevel;temperature;humidity
8101;BME280;4093;53.470;9.832;2024-01-07T00:00:25;101835.97;;;0.44;81.16
8101;BME280;4093;53.470;9.832;2024-01-07T00:02:53;101845.41;;;0.88;80.25
8101;BME280;4093;53.470;9.832;2024-01-07T00:05:22;101842.41;;;0.78;79.74
8101;BME280;4093;53.470;9.832;2024-01-07T00:07:50;101843.47;;;0.83;79.34
8101;BME280;4093;53.470;9.832;2024-01-07T00:10:18;101844.50;;;0.46;80.36
8101;BME280;4093;53.470;9.832;2024-01-07T00:12:46;101841.75;;;0.61;80.52
8101;BME280;4093;53.470;9.832;2024-01-07T00:15:14;101838.56;;;0.45;79.66
8101;BME280;4093;53.470;9.832;2024-01-07T00:17:42;101847.28;;;0.31;81.05
8101;BME280;4093;53.470;9.832;2024-01-07T00:20:11;101838.25;;;0.38;80.25
8101;BME280;4093;53.470;9.832;2024-01-07T00:22:40;101857.31;;;0.68;79.99
8101;BME280;4093;53.470;9.832;2024-01-07T00:25:08;101847.00;;;0.65;78.73
8101;BME280;4093;53.470;9.832;2024-01-07T00:27:35;101854.38;;;0.38;79.59
8101;BME280;4093;53.470;9.832;2024-01-07T00:30:04;101862.06;;;1.03;78.73
8101;BME280;4093;53.470;9.832;2024-01-07T00:32:32;101857.75;;;0.58;80.32
8101;BME280;4093;53.470;9.832;2024-01-07T00:35:00;101863.94;;;0.25;80.34
8101;BME280;4093;53.470;9.832;2024-01-07T00:37:28;101888.19;;;0.36;80.83
8101;BME280;4093;53.470;9.832;2024-01-07T00:39:57;101879.34;;;0.47;79.84
8101;BME280;4093;53.470;9.832;2024-01-07T00:42:25;101874.47;;;0.32;80.13
8101;BME280;4093;53.470;9.832;2024-01-07T00:44:52;101893.25;;;0.97;78.78
8101;BME280;4093;53.470;9.832;2024-01-07T00:47:20;101888.59;;;0.87;78.66
8101;BME280;4093;53.470;9.832;2024-01-07T00:49:48;101889.72;;;0.93;78.66
8101;BME280;4093;53.470;9.832;2024-01-07T00:52:16;101895.00;;;0.98;78.69
8101;BME280;4093;53.470;9.832;2024-01-07T00:54:43;101902.09;;;0.44;80.08
8101;BME280;4093;53.470;9.832;2024-01-07T00:57:11;101897.16;;;0.68;78.91
8101;BME280;4093;53.470;9.832;2024-01-07T00:59:39;101900.59;;;0.49;79.74
8101;BME280;4093;53.470;9.832;2024-01-07T01:02:07;101887.66;;;0.23;79.75
8101;BME280;4093;53.470;9.832;2024-01-07T01:04:38;101893.94;;;0.12;80.70
8101;BME280;4093;53.470;9.832;2024-01-07T01:07:06;101901.50;;;0.30;79.89
8101;BME280;4093;53.470;9.832;2024-01-07T01:09:34;101900.09;;;0.17;80.10
8101;BME280;4093;53.470;9.832;2024-01-07T01:12:02;101908.44;;;0.15;80.06
8101;BME280;4093;53.470;9.832;2024-01-07T01:14:31;101936.78;;;1.03;78.67
8101;BME280;4093;53.470;9.832;2024-01-07T01:16:59;101927.78;;;0.90;78.59
8101;BME280;4093;53.470;9.832;2024-01-07T01:19:27;101898.88;;;-0.10;80.82
8101;BME280;4093;53.470;9.832;2024-01-07T01:21:55;101919.22;;;-0.10;81.41
8101;BME280;4093;53.470;9.832;2024-01-07T01:24:23;101920.69;;;-0.15;81.33
8101;BME280;4093;53.470;9.832;2024-01-07T01:26:51;101936.91;;;0.26;80.80
8101;BME280;4093;53.470;9.832;2024-01-07T01:29:19;101932.19;;;-0.04;80.69
8101;BME280;4093;53.470;9.832;2024-01-07T01:31:48;101944.00;;;0.33;80.55
8101;BME280;4093;53.470;9.832;2024-01-07T01:34:16;101942.59;;;0.20;80.61
8101;BME280;4093;53.470;9.832;2024-01-07T01:36:44;101941.66;;;0.18;80.11
8101;BME280;4093;53.470;9.832;2024-01-07T01:39:11;101952.34;;;0.50;80.04
8101;BME280;4093;53.470;9.832;2024-01-07T01:41:39;101955.44;;;0.42;80.25
8101;BME280;4093;53.470;9.832;2024-01-07T01:44:07;101960.31;;;0.77;78.93
8101;BME280;4093;53.470;9.832;2024-01-07T01:46:35;101969.06;;;0.83;79.16
8101;BME280;4093;53.470;9.832;2024-01-07T01:49:05;101966.81;;;0.70;79.40
8101;BME280;4093;53.470;9.832;2024-01-07T01:51:34;101937.16;;;0.12;80.72
8101;BME280;4093;53.470;9.832;2024-01-07T01:54:03;101969.22;;;0.67;79.61
8101;BME280;4093;53.470;9.832;2024-01-07T01:56:31;101968.84;;;0.19;81.28
8101;BME280;4093;53.470;9.832;2024-01-07T01:59:00;101973.78;;;0.35;80.86
8101;BME280;4093;53.470;9.832;2024-01-07T02:01:28;101984.16;;;0.59;80.93
8101;BME280;4093;53.470;9.832;2024-01-07T02:03:56;101985.09;;;0.42;81.86
8101;BME280;4093;53.470;9.832;2024-01-07T02:06:25;101996.13;;;0.23;82.83
8101;BME280;4093;53.470;9.832;2024-01-07T02:08:54;101986.41;;;0.34;81.31
8101;BME280;4093;53.470;9.832;2024-01-07T02:11:22;101989.19;;;0.38;82.38
8101;BME280;4093;53.470;9.832;2024-01-07T02:13:50;102000.75;;;0.32;82.23
8101;BME280;4093;53.470;9.832;2024-01-07T02:16:18;101982.44;;;0.02;81.91
8101;BME280;4093;53.470;9.832;2024-01-07T02:18:46;101985.22;;;-0.12;82.57
8101;BME280;4093;53.470;9.832;2024-01-07T02:21:14;101985.03;;;0.03;82.71
8101;BME280;4093;53.470;9.832;2024-01-07T02:23:43;102016.16;;;0.74;80.99
8101;BME280;4093;53.470;9.832;2024-01-07T02:26:12;102009.84;;;0.65;80.68
8101;BME280;4093;53.470;9.832;2024-01-07T02:28:40;101990.94;;;0.02;82.09
8101;BME280;4093;53.470;9.832;2024-01-07T02:31:07;101997.81;;;0.22;80.89
8101;BME280;4093;53.470;9.832;2024-01-07T02:33:35;101982.16;;;-0.22;81.98
8101;BME280;4093;53.470;9.832;2024-01-07T02:36:04;102009.13;;;0.68;79.63
8101;BME280;4093;53.470;9.832;2024-01-07T02:38:31;102009.19;;;0.50;79.87
8101;BME280;4093;53.470;9.832;2024-01-07T02:40:59;101996.81;;;0.01;81.10
8101;BME280;4093;53.470;9.832;2024-01-07T02:43:28;102011.78;;;-0.05;81.67
8101;BME280;4093;53.470;9.832;2024-01-07T02:45:56;102028.06;;;0.55;80.75
8101;BME280;4093;53.470;9.832;2024-01-07T02:48:23;102015.94;;;0.30;80.08
8101;BME280;4093;53.470;9.832;2024-01-07T02:50:51;102023.09;;;0.19;81.15
8101;BME280;4093;53.470;9.832;2024-01-07T02:53:19;102028.97;;;0.18;81.14
8101;BME280;4093;53.470;9.832;2024-01-07T02:55:47;102046.56;;;0.51;80.20
8101;BME280;4093;53.470;9.832;2024-01-07T02:58:14;102025.91;;;0.26;80.16
8101;BME280;4093;53.470;9.832;2024-01-07T03:00:43;102024.53;;;0.32;79.90
8101;BME280;4093;53.470;9.832;2024-01-07T03:03:11;102045.00;;;0.35;80.40
8101;BME280;4093;53.470;9.832;2024-01-07T03:05:39;102031.69;;;0.41;78.89
8101;BME280;4093;53.470;9.832;2024-01-07T03:08:07;102036.16;;;0.27;80.70
8101;BME280;4093;53.470;9.832;2024-01-07T03:10:35;102043.63;;;0.61;79.60
8101;BME280;4093;53.470;9.832;2024-01-07T03:13:03;102039.06;;;0.54;79.67
8101;BME280;4093;53.470;9.832;2024-01-07T03:15:31;102048.03;;;1.04;78.72
8101;BME280;4093;53.470;9.832;2024-01-07T03:18:01;102037.19;;;0.69;78.88
8101;BME280;4093;53.470;9.832;2024-01-07T03:20:28;102035.84;;;0.39;79.98
8101;BME280;4093;53.470;9.832;2024-01-07T03:22:56;102050.16;;;0.56;81.09
8101;BME280;4093;53.470;9.832;2024-01-07T03:25:24;102041.94;;;0.42;80.09
8101;BME280;4093;53.470;9.832;2024-01-07T03:27:52;102065.19;;;0.89;79.65
8101;BME280;4093;53.470;9.832;2024-01-07T03:30:19;102049.00;;;0.30;80.40
8101;BME280;4093;53.470;9.832;2024-01-07T03:32:47;102059.34;;;0.53;80.47
8101;BME280;4093;53.470;9.832;2024-01-07T03:35:16;102068.75;;;0.73;80.16
8101;BME280;4093;53.470;9.832;2024-01-07T03:37:44;102060.50;;;0.98;79.12
8101;BME280;4093;53.470;9.832;2024-01-07T03:40:12;102063.22;;;0.44;80.44
8101;BME280;4093;53.470;9.832;2024-01-07T03:42:40;102061.66;;;0.29;80.72
8101;BME280;4093;53.470;9.832;2024-01-07T03:45:08;102094.53;;;1.20;79.90
8101;BME280;4093;53.470;9.832;2024-01-07T03:47:36;102088.06;;;1.28;78.75
8101;BME280;4093;53.470;9.832;2024-01-07T03:50:04;102083.53;;;1.21;78.83
8101;BME280;4093;53.470;9.832;2024-01-07T03:52:34;102074.03;;;1.17;78.21
8101;BME280;4093;53.470;9.832;2024-01-07T03:55:02;102081.72;;;0.60;80.14
8101;BME280;4093;53.470;9.832;2024-01-07T03:57:30;102029.53;;;0.50;79.93
8101;BME280;4093;53.470;9.832;2024-01-07T03:59:59;102094.78;;;1.06;79.71
8101;BME280;4093;53.470;9.832;2024-01-07T04:02:27;102104.63;;;1.58;77.32
8101;BME280;4093;53.470;9.832;2024-01-07T04:04:55;102110.44;;;1.54;77.76
8101;BME280;4093;53.470;9.832;2024-01-07T04:07:22;102080.06;;;0.80;79.20
8101;BME280;4093;53.470;9.832;2024-01-07T04:09:51;102110.41;;;0.95;80.26
8101;BME280;4093;53.470;9.832;2024-01-07T04:12:19;102107.34;;;0.82;80.14
8101;BME280;4093;53.470;9.832;2024-01-07T04:14:47;102102.28;;;0.84;79.94
8101;BME280;4093;53.470;9.832;2024-01-07T04:17:15;102105.09;;;0.71;80.65
8101;BME280;4093;53.470;9.832;2024-01-07T04:19:42;102122.53;;;1.39;79.15
8101;BME280;4093;53.470;9.832;2024-01-07T04:22:10;102113.06;;;1.36;79.26
8101;BME280;4093;53.470;9.832;2024-01-07T04:24:40;102113.88;;;0.97;80.14
8101;BME280;4093;53.470;9.832;2024-01-07T04:27:09;102118.31;;;1.60;78.04
8101;BME280;4093;53.470;9.832;2024-01-07T04:29:37;102126.25;;;1.47;79.63
8101;BME280;4093;53.470;9.832;2024-01-07T04:32:05;102134.34;;;1.18;79.70
8101;BME280;4093;53.470;9.832;2024-01-07T04:34:33;102111.19;;;0.74;80.17
8101;BME280;4093;53.470;9.832;2024-01-07T04:37:01;102123.66;;;0.87;80.51
8101;BME280;4093;53.470;9.832;2024-01-07T04:39:28;102139.22;;;0.93;80.47
8101;BME280;4093;53.470;9.832;2024-01-07T04:41:56;102148.56;;;1.53;79.52
8101;BME280;4093;53.470;9.832;2024-01-07T04:44:25;102147.06;;;1.37;80.04
8101;BME280;4093;53.470;9.832;2024-01-07T04:46:53;102144.19;;;1.10;80.82
8101;BME280;4093;53.470;9.832;2024-01-07T04:49:21;102135.06;;;0.96;80.59
8101;BME280;4093;53.470;9.832;2024-01-07T04:51:48;102151.16;;;1.33;78.99
8101;BME280;4093;53.470;9.832;2024-01-07T04:54:16;102141.09;;;1.17;79.28
8101;BME280;4093;53.470;9.832;2024-01-07T04:56:45;102084.19;;;0.58;80.39
8101;BME280;4093;53.470;9.832;2024-01-07T04:59:12;102159.75;;;1.56;78.78
8101;BME280;4093;53.470;9.832;2024-01-07T05:01:41;102151.22;;;1.15;79.54
8101;BME280;4093;53.470;9.832;2024-01-07T05:04:09;102158.59;;;1.29;79.42
8101;BME280;4093;53.470;9.832;2024-01-07T05:06:37;102152.44;;;1.24;78.85
8101;BME280;4093;53.470;9.832;2024-01-07T05:09:05;102161.47;;;1.17;79.88
8101;BME280;4093;53.470;9.832;2024-01-07T05:11:39;102150.53;;;1.00;79.33
8101;BME280;4093;53.470;9.832;2024-01-07T05:14:07;102181.50;;;1.68;78.33
8101;BME280;4093;53.470;9.832;2024-01-07T05:16:34;102167.00;;;1.47;78.13
8101;BME280;4093;53.470;9.832;2024-01-07T05:19:03;102181.66;;;1.51;78.10
8101;BME280;4093;53.470;9.832;2024-01-07T05:21:31;102187.63;;;1.92;76.88
8101;BME280;4093;53.470;9.832;2024-01-07T05:23:59;102167.31;;;1.14;77.78
8101;BME280;4093;53.470;9.832;2024-01-07T05:26:27;102197.94;;;1.95;77.07
8101;BME280;4093;53.470;9.832;2024-01-07T05:28:54;102182.44;;;1.50;77.62
8101;BME280;4093;53.470;9.832;2024-01-07T05:31:22;102173.84;;;1.09;78.55
8101;BME280;4093;53.470;9.832;2024-01-07T05:33:50;102179.09;;;1.51;77.10
8101;BME280;4093;53.470;9.832;2024-01-07T05:36:19;102193.03;;;1.79;76.68
8101;BME280;4093;53.470;9.832;2024-01-07T05:38:48;102182.78;;;1.19;78.21
8101;BME280;4093;53.470;9.832;2024-01-07T05:41:15;102198.00;;;1.76;76.92
8101;BME280;4093;53.470;9.832;2024-01-07T05:43:43;102195.13;;;1.89;75.89
8101;BME280;4093;53.470;9.832;2024-01-07T05:46:11;102184.94;;;1.89;74.63
8101;BME280;4093;53.470;9.832;2024-01-07T05:48:42;102195.97;;;1.69;76.76
8101;BME280;4093;53.470;9.832;2024-01-07T05:51:11;102199.41;;;1.50;76.43
8101;BME280;4093;53.470;9.832;2024-01-07T05:53:40;102214.66;;;1.89;76.43
8101;BME280;4093;53.470;9.832;2024-01-07T05:56:08;102193.91;;;1.41;75.61
8101;BME280;4093;53.470;9.832;2024-01-07T05:58:36;102201.41;;;1.97;75.35
8101;BME280;4093;53.470;9.832;2024-01-07T06:01:04;102200.28;;;1.50;75.54
8101;BME280;4093;53.470;9.832;2024-01-07T06:03:34;102212.22;;;1.71;75.92
8101;BME280;4093;53.470;9.832;2024-01-07T06:06:02;102198.13;;;1.40;76.32
8101;BME280;4093;53.470;9.832;2024-01-07T06:08:30;102216.88;;;1.81;75.68
8101;BME280;4093;53.470;9.832;2024-01-07T06:10:59;102207.59;;;1.23;76.77
8101;BME280;4093;53.470;9.832;2024-01-07T06:13:27;102215.69;;;1.53;76.44
8101;BME280;4093;53.470;9.832;2024-01-07T06:15:55;102228.72;;;2.00;76.16
8101;BME280;4093;53.470;9.832;2024-01-07T06:18:23;102224.97;;;1.71;75.52
8101;BME280;4093;53.470;9.832;2024-01-07T06:20:51;102218.88;;;1.67;75.64
8101;BME280;4093;53.470;9.832;2024-01-07T06:23:18;102233.69;;;1.76;76.14
8101;BME280;4093;53.470;9.832;2024-01-07T06:25:46;102233.94;;;1.82;75.40
8101;BME280;4093;53.470;9.832;2024-01-07T06:28:15;102242.84;;;1.92;75.32
8101;BME280;4093;53.470;9.832;2024-01-07T06:30:43;102240.31;;;2.13;74.98
8101;BME280;4093;53.470;9.832;2024-01-07T06:33:11;102249.84;;;2.17;75.09
8101;BME280;4093;53.470;9.832;2024-01-07T06:35:39;102251.53;;;2.37;73.88
8101;BME280;4093;53.470;9.832;2024-01-07T06:38:07;102251.34;;;2.33;74.55
8101;BME280;4093;53.470;9.832;2024-01-07T06:40:35;102251.41;;;2.34;73.78
8101;BME280;4093;53.470;9.832;2024-01-07T06:43:02;102251.81;;;2.03;75.03
8101;BME280;4093;53.470;9.832;2024-01-07T06:45:32;102245.47;;;1.74;75.53
8101;BME280;4093;53.470;9.832;2024-01-07T06:48:00;102269.59;;;2.42;75.21
8101;BME280;4093;53.470;9.832;2024-01-07T06:50:28;102253.84;;;2.10;74.63
8101;BME280;4093;53.470;9.832;2024-01-07T06:52:55;102266.34;;;2.67;73.20
8101;BME280;4093;53.470;9.832;2024-01-07T06:55:23;102256.22;;;1.86;75.04
8101;BME280;4093;53.470;9.832;2024-01-07T06:57:51;102284.53;;;2.97;72.60
8101;BME280;4093;53.470;9.832;2024-01-07T07:00:19;102287.38;;;3.27;72.58
8101;BME280;4093;53.470;9.832;2024-01-07T07:02:48;102272.31;;;2.46;73.66
8101;BME280;4093;53.470;9.832;2024-01-07T07:05:15;102268.09;;;2.26;74.85
8101;BME280;4093;53.470;9.832;2024-01-07T07:07:43;102288.69;;;2.51;75.27
8101;BME280;4093;53.470;9.832;2024-01-07T07:10:11;102292.66;;;2.66;75.12
8101;BME280;4093;53.470;9.832;2024-01-07T07:12:39;102280.97;;;2.29;75.79
8101;BME280;4093;53.470;9.832;2024-01-07T07:15:08;102306.00;;;2.59;76.62
8101;BME280;4093;53.470;9.832;2024-01-07T07:17:36;102304.19;;;2.35;77.02
8101;BME280;4093;53.470;9.832;2024-01-07T07:20:07;102303.25;;;2.33;76.70
8101;BME280;4093;53.470;9.832;2024-01-07T07:22:35;102314.56;;;2.19;78.39
8101;BME280;4093;53.470;9.832;2024-01-07T07:25:03;102330.47;;;2.53;77.20
8101;BME280;4093;53.470;9.832;2024-01-07T07:27:32;102322.25;;;2.61;77.05
8101;BME280;4093;53.470;9.832;2024-01-07T07:29:59;102333.09;;;2.55;77.54
8101;BME280;4093;53.470;9.832;2024-01-07T07:32:27;102324.63;;;2.77;76.58
8101;BME280;4093;53.470;9.832;2024-01-07T07:34:55;102325.53;;;2.37;77.23
8101;BME280;4093;53.470;9.832;2024-01-07T07:37:24;102340.50;;;2.49;78.47
8101;BME280;4093;53.470;9.832;2024-01-07T07:39:52;102346.03;;;1.61;82.80
8101;BME280;4093;53.470;9.832;2024-01-07T07:42:19;102341.53;;;1.94;81.51
8101;BME280;4093;53.470;9.832;2024-01-07T07:44:47;102362.13;;;2.38;82.22
8101;BME280;4093;53.470;9.832;2024-01-07T07:47:15;102363.81;;;2.37;81.79
8101;BME280;4093;53.470;9.832;2024-01-07T07:49:43;102370.56;;;2.56;82.11
8101;BME280;4093;53.470;9.832;2024-01-07T07:52:10;102360.69;;;2.44;81.56
8101;BME280;4093;53.470;9.832;2024-01-07T07:54:42;102367.13;;;1.76;85.14
8101;BME280;4093;53.470;9.832;2024-01-07T07:57:09;102396.63;;;2.89;81.15
8101;BME280;4093;53.470;9.832;2024-01-07T07:59:37;102379.00;;;2.34;83.51
8101;BME280;4093;53.470;9.832;2024-01-07T08:02:05;102379.16;;;2.18;84.05
8101;BME280;4093;53.470;9.832;2024-01-07T08:04:33;102399.31;;;2.92;81.83
8101;BME280;4093;53.470;9.832;2024-01-07T08:07:00;102389.38;;;2.58;81.66
8101;BME280;4093;53.470;9.832;2024-01-07T08:09:28;102395.88;;;2.92;80.00
8101;BME280;4093;53.470;9.832;2024-01-07T08:11:57;102385.72;;;2.32;82.98
8101;BME280;4093;53.470;9.832;2024-01-07T08:14:25;102397.78;;;1.78;86.13
8101;BME280;4093;53.470;9.832;2024-01-07T08:16:53;102417.25;;;2.73;82.37
8101;BME280;4093;53.470;9.832;2024-01-07T08:19:20;102402.88;;;1.97;84.49
8101;BME280;4093;53.470;9.832;2024-01-07T08:21:48;102422.09;;;1.89;86.14
8101;BME280;4093;53.470;9.832;2024-01-07T08:24:16;102440.66;;;2.43;85.89
8101;BME280;4093;53.470;9.832;2024-01-07T08:26:44;102456.53;;;3.17;83.92
8101;BME280;4093;53.470;9.832;2024-01-07T08:29:13;102420.03;;;3.00;80.65
8101;BME280;4093;53.470;9.832;2024-01-07T08:31:41;102464.19;;;4.52;78.12
8101;BME280;4093;53.470;9.832;2024-01-07T08:34:09;102447.34;;;4.34;76.14
8101;BME280;4093;53.470;9.832;2024-01-07T08:36:37;102400.34;;;2.97;78.20
8101;BME280;4093;53.470;9.832;2024-01-07T08:39:05;102415.19;;;2.25;81.75
8101;BME280;4093;53.470;9.832;2024-01-07T08:41:34;102439.84;;;2.85;81.06
8101;BME280;4093;53.470;9.832;2024-01-07T08:44:02;102424.09;;;1.59;84.57
8101;BME280;4093;53.470;9.832;2024-01-07T08:46:31;102433.56;;;1.79;82.56
8101;BME280;4093;53.470;9.832;2024-01-07T08:48:58;102440.72;;;1.51;84.39
8101;BME280;4093;53.470;9.832;2024-01-07T08:51:26;102467.47;;;1.96;84.78
8101;BME280;4093;53.470;9.832;2024-01-07T08:53:57;102456.06;;;1.17;85.67
8101;BME280;4093;53.470;9.832;2024-01-07T08:56:25;102479.66;;;1.84;85.01
8101;BME280;4093;53.470;9.832;2024-01-07T08:58:53;102459.06;;;1.26;85.86
8101;BME280;4093;53.470;9.832;2024-01-07T09:01:20;102490.41;;;2.14;84.56
8101;BME280;4093;53.470;9.832;2024-01-07T09:03:49;102489.81;;;2.59;81.43
8101;BME280;4093;53.470;9.832;2024-01-07T09:06:17;102495.88;;;2.61;82.42
8101;BME280;4093;53.470;9.832;2024-01-07T09:08:45;102470.97;;;1.98;82.88
8101;BME280;4093;53.470;9.832;2024-01-07T09:11:13;102490.94;;;2.65;81.06
8101;BME280;4093;53.470;9.832;2024-01-07T09:13:40;102485.13;;;1.74;84.49
8101;BME280;4093;53.470;9.832;2024-01-07T09:16:10;102488.56;;;2.12;82.09
8101;BME280;4093;53.470;9.832;2024-01-07T09:18:39;102472.56;;;1.41;83.80
8101;BME280;4093;53.470;9.832;2024-01-07T09:21:08;102499.41;;;1.52;86.10
8101;BME280;4093;53.470;9.832;2024-01-07T09:23:36;102490.91;;;0.83;87.59
8101;BME280;4093;53.470;9.832;2024-01-07T09:26:03;102504.41;;;0.99;87.22
8101;BME280;4093;53.470;9.832;2024-01-07T09:28:31;102512.72;;;1.12;87.23
8101;BME280;4093;53.470;9.832;2024-01-07T09:30:59;102528.00;;;1.29;85.99
8101;BME280;4093;53.470;9.832;2024-01-07T09:33:28;102521.50;;;1.70;84.99
8101;BME280;4093;53.470;9.832;2024-01-07T09:35:56;102535.75;;;2.39;82.13
8101;BME280;4093;53.470;9.832;2024-01-07T09:38:37;102521.84;;;1.77;82.53
8101;BME280;4093;53.470;9.832;2024-01-07T09:41:05;102537.53;;;1.85;83.28
8101;BME280;4093;53.470;9.832;2024-01-07T09:43:33;102533.28;;;1.85;81.91
8101;BME280;4093;53.470;9.832;2024-01-07T09:46:03;102534.81;;;1.82;80.95
8101;BME280;4093;53.470;9.832;2024-01-07T09:48:30;102526.94;;;1.59;81.59
8101;BME280;4093;53.470;9.832;2024-01-07T09:51:00;102544.44;;;1.70;82.87
8101;BME280;4093;53.470;9.832;2024-01-07T09:53:31;102543.53;;;2.23;80.34
8101;BME280;4093;53.470;9.832;2024-01-07T09:56:12;102520.56;;;1.33;81.47
8101;BME280;4093;53.470;9.832;2024-01-07T09:58:46;102526.88;;;1.58;81.78
8101;BME280;4093;53.470;9.832;2024-01-07T10:01:16;102532.34;;;2.01;79.94
8101;BME280;4093;53.470;9.832;2024-01-07T10:03:45;102528.19;;;2.60;78.58
8101;BME280;4093;53.470;9.832;2024-01-07T10:06:13;102546.03;;;2.99;78.01
8101;BME280;4093;53.470;9.832;2024-01-07T10:08:41;102528.34;;;3.23;74.82
8101;BME280;4093;53.470;9.832;2024-01-07T10:11:10;102491.97;;;2.30;77.37
8101;BME280;4093;53.470;9.832;2024-01-07T10:13:40;102501.94;;;1.52;78.47
8101;BME280;4093;53.470;9.832;2024-01-07T10:16:08;102534.03;;;2.77;77.02
8101;BME280;4093;53.470;9.832;2024-01-07T10:18:36;102503.50;;;1.67;77.70
8101;BME280;4093;53.470;9.832;2024-01-07T10:21:06;102539.97;;;2.76;77.26
8101;BME280;4093;53.470;9.832;2024-01-07T10:23:34;102519.25;;;2.70;74.98
8101;BME280;4093;53.470;9.832;2024-01-07T10:26:02;102508.44;;;1.46;78.60
8101;BME280;4093;53.470;9.832;2024-01-07T10:28:46;102545.38;;;2.84;76.65
8101;BME280;4093;53.470;9.832;2024-01-07T10:31:14;102514.72;;;1.88;77.05
8101;BME280;4093;53.470;9.832;2024-01-07T10:33:42;102534.66;;;2.34;76.83
8101;BME280;4093;53.470;9.832;2024-01-07T10:36:10;102524.44;;;1.97;76.99
8101;BME280;4093;53.470;9.832;2024-01-07T10:38:39;102540.19;;;2.43;77.27
8101;BME280;4093;53.470;9.832;2024-01-07T10:41:11;102529.78;;;2.39;76.27
8101;BME280;4093;53.470;9.832;2024-01-07T10:43:39;102507.97;;;1.36;77.94
8101;BME280;4093;53.470;9.832;2024-01-07T10:46:10;102530.38;;;2.72;74.52
8101;BME280;4093;53.470;9.832;2024-01-07T10:48:46;102531.88;;;2.67;74.95
8101;BME280;4093;53.470;9.832;2024-01-07T10:51:20;102505.38;;;1.53;76.79
8101;BME280;4093;53.470;9.832;2024-01-07T10:53:51;102527.50;;;1.72;77.90
8101;BME280;4093;53.470;9.832;2024-01-07T10:56:22;102517.84;;;1.65;78.12
8101;BME280;4093;53.470;9.832;2024-01-07T10:58:51;102512.41;;;1.41;77.25
8101;BME280;4093;53.470;9.832;2024-01-07T11:01:20;102509.88;;;1.41;76.91
8101;BME280;4093;53.470;9.832;2024-01-07T11:03:57;102522.41;;;1.72;76.56
8101;BME280;4093;53.470;9.832;2024-01-07T11:06:33;102541.09;;;1.89;77.23
8101;BME280;4093;53.470;9.832;2024-01-07T11:09:17;102548.88;;;2.66;75.00
8101;BME280;4093;53.470;9.832;2024-01-07T11:11:46;102523.03;;;1.66;76.47
8101;BME280;4093;53.470;9.832;2024-01-07T11:14:35;102544.28;;;2.02;77.01
8101;BME280;4093;53.470;9.832;2024-01-07T11:17:05;102518.44;;;2.71;73.67
8101;BME280;4093;53.470;9.832;2024-01-07T11:19:35;102556.16;;;3.36;73.39
8101;BME280;4093;53.470;9.832;2024-01-07T11:22:22;102538.59;;;2.65;74.09
8101;BME280;4093;53.470;9.832;2024-01-07T11:24:55;102547.00;;;2.82;74.26
8101;BME280;4093;53.470;9.832;2024-01-07T11:27:24;102519.44;;;1.62;77.07
8101;BME280;4093;53.470;9.832;2024-01-07T11:29:55;102542.66;;;2.79;75.49
8101;BME280;4093;53.470;9.832;2024-01-07T11:32:28;102520.03;;;2.30;75.64
8101;BME280;4093;53.470;9.832;2024-01-07T11:34:56;102519.88;;;1.90;76.71
8101;BME280;4093;53.470;9.832;2024-01-07T11:37:26;102545.94;;;2.20;76.29
8101;BME280;4093;53.470;9.832;2024-01-07T11:39:56;102550.94;;;2.55;75.77
8101;BME280;4093;53.470;9.832;2024-01-07T11:42:25;102534.59;;;1.95;76.42
8101;BME280;4093;53.470;9.832;2024-01-07T11:44:53;102542.53;;;2.01;76.33
8101;BME280;4093;53.470;9.832;2024-01-07T11:47:22;102539.25;;;1.86;76.62
8101;BME280;4093;53.470;9.832;2024-01-07T11:49:52;102558.56;;;2.54;75.54
8101;BME280;4093;53.470;9.832;2024-01-07T11:52:20;102474.72;;;1.51;76.05
8101;BME280;4093;53.470;9.832;2024-01-07T11:54:48;102563.84;;;2.39;77.17
8101;BME280;4093;53.470;9.832;2024-01-07T11:57:16;102549.44;;;2.41;75.54
8101;BME280;4093;53.470;9.832;2024-01-07T11:59:44;102559.66;;;2.41;76.24
8101;BME280;4093;53.470;9.832;2024-01-07T12:02:12;102530.09;;;1.20;78.85
8101;BME280;4093;53.470;9.832;2024-01-07T12:04:41;102554.00;;;1.39;78.46
8101;BME280;4093;53.470;9.832;2024-01-07T12:07:11;102546.69;;;1.99;76.35
8101;BME280;4093;53.470;9.832;2024-01-07T12:09:41;102533.50;;;1.54;77.40
8101;BME280;4093;53.470;9.832;2024-01-07T12:12:09;102543.59;;;1.19;79.44
8101;BME280;4093;53.470;9.832;2024-01-07T12:14:36;102561.28;;;1.50;78.70
8101;BME280;4093;53.470;9.832;2024-01-07T12:17:04;102562.94;;;2.01;77.92
8101;BME280;4093;53.470;9.832;2024-01-07T12:19:32;102578.47;;;2.43;75.74
8101;BME280;4093;53.470;9.832;2024-01-07T12:22:03;102560.03;;;2.68;74.57
8101;BME280;4093;53.470;9.832;2024-01-07T12:24:33;102535.81;;;1.68;76.32
8101;BME280;4093;53.470;9.832;2024-01-07T12:27:04;102565.44;;;2.19;76.84
8101;BME280;4093;53.470;9.832;2024-01-07T12:29:31;102557.97;;;2.04;76.40
8101;BME280;4093;53.470;9.832;2024-01-07T12:31:59;102560.44;;;2.21;75.95
8101;BME280;4093;53.470;9.832;2024-01-07T12:34:30;102541.22;;;1.74;76.38
8101;BME280;4093;53.470;9.832;2024-01-07T12:36:59;102553.22;;;2.30;76.69
8101;BME280;4093;53.470;9.832;2024-01-07T12:39:32;102536.84;;;2.07;75.18
8101;BME280;4093;53.470;9.832;2024-01-07T12:42:00;102547.56;;;1.82;76.70
8101;BME280;4093;53.470;9.832;2024-01-07T12:44:30;102561.97;;;2.54;74.76
8101;BME280;4093;53.470;9.832;2024-01-07T12:46:57;102570.50;;;2.94;73.74
8101;BME280;4093;53.470;9.832;2024-01-07T12:49:25;102554.81;;;3.25;71.68
8101;BME280;4093;53.470;9.832;2024-01-07T12:51:53;102570.91;;;3.43;72.04
8101;BME280;4093;53.470;9.832;2024-01-07T12:54:21;102567.63;;;2.86;73.89
8101;BME280;4093;53.470;9.832;2024-01-07T12:56:52;102538.44;;;1.17;76.36
8101;BME280;4093;53.470;9.832;2024-01-07T12:59:20;102564.97;;;2.08;75.56
8101;BME280;4093;53.470;9.832;2024-01-07T13:01:47;102553.88;;;1.20;78.17
8101;BME280;4093;53.470;9.832;2024-01-07T13:04:18;102580.56;;;2.15;76.80
8101;BME280;4093;53.470;9.832;2024-01-07T13:06:47;102569.09;;;2.42;74.63
8101;BME280;4093;53.470;9.832;2024-01-07T13:09:14;102570.88;;;3.01;73.26
8101;BME280;4093;53.470;9.832;2024-01-07T13:11:42;102573.41;;;3.01;72.87
8101;BME280;4093;53.470;9.832;2024-01-07T13:14:11;102557.78;;;2.19;74.66
8101;BME280;4093;53.470;9.832;2024-01-07T13:16:39;102570.22;;;2.12;75.89
8101;BME280;4093;53.470;9.832;2024-01-07T13:19:07;102585.50;;;1.94;77.03
8101;BME280;4093;53.470;9.832;2024-01-07T13:21:38;102578.19;;;1.82;76.37
8101;BME280;4093;53.470;9.832;2024-01-07T13:24:08;102586.38;;;1.94;76.55
8101;BME280;4093;53.470;9.832;2024-01-07T13:26:36;102590.47;;;1.91;76.89
8101;BME280;4093;53.470;9.832;2024-01-07T13:29:04;102601.25;;;2.39;75.79